sensor_id;sensor_type;location;lat;lon;timestamp;P1;durP1;ratioP1;P2;durP2;ratioP2
31442;SDS011;18065;55.876;9.830;2024-02-21T00:00:11;3.55;;;1.60;;
31442;SDS011;18065;55.876;9.830;2024-02-21T00:02:40;6.35;;;1.70;;
31442;SDS011;18065;55.876;9.830;2024-02-21T00:05:09;4.07;;;1.63;;
31442;SDS011;18065;55.876;9.830;2024-02-21T00:07:38;3.53;;;1.85;;
31442;SDS011;18065;55.876;9.830;2024-02-21T00:10:10;6.22;;;1.90;;
31442;SDS011;18065;55.876;9.830;2024-02-21T00:12:38;5.43;;;1.80;;
31442;SDS011;18065;55.876;9.830;2024-02-21T00:15:08;3.55;;;1.70;;
31442;SDS011;18065;55.876;9.830;2024-02-21T00:17:37;4.47;;;1.83;;
31442;SDS011;18065;55.876;9.830;2024-02-21T00:20:06;5.10;;;1.90;;
31442;SDS011;18065;55.876;9.830;2024-02-21T00:22:36;3.50;;;1.58;;
31442;SDS011;18065;55.876;9.830;2024-02-21T00:25:05;3.20;;;1.55;;
31442;SDS011;18065;55.876;9.830;2024-02-21T00:27:36;3.42;;;1.58;;
31442;SDS011;18065;55.876;9.830;2024-02-21T00:30:06;4.93;;;1.67;;
31442;SDS011;18065;55.876;9.830;2024-02-21T00:32:35;3.53;;;1.80;;
31442;SDS011;18065;55.876;9.830;2024-02-21T00:35:05;5.65;;;1.95;;
31442;SDS011;18065;55.876;9.830;2024-02-21T00:37:34;2.20;;;1.20;;
31442;SDS011;18065;55.876;9.830;2024-02-21T00:40:03;3.45;;;1.60;;
31442;SDS011;18065;55.876;9.830;2024-02-21T00:42:33;3.38;;;1.60;;
31442;SDS011;18065;55.876;9.830;2024-02-21T00:45:05;2.75;;;1.55;;
31442;SDS011;18065;55.876;9.830;2024-02-21T00:47:35;3.83;;;1.60;;
31442;SDS011;18065;55.876;9.830;2024-02-21T00:50:04;3.20;;;1.38;;
31442;SDS011;18065;55.876;9.830;2024-02-21T00:52:34;3.88;;;1.40;;
31442;SDS011;18065;55.876;9.830;2024-02-21T00:55:04;4.60;;;1.70;;
31442;SDS011;18065;55.876;9.830;2024-02-21T00:57:34;2.72;;;1.50;;
31442;SDS011;18065;55.876;9.830;2024-02-21T01:00:06;5.05;;;1.80;;
31442;SDS011;18065;55.876;9.830;2024-02-21T01:02:36;3.15;;;1.73;;
31442;SDS011;18065;55.876;9.830;2024-02-21T01:05:05;4.35;;;1.63;;
31442;SDS011;18065;55.876;9.830;2024-02-21T01:07:34;3.00;;;1.33;;
31442;SDS011;18065;55.876;9.830;2024-02-21T01:10:03;3.13;;;1.30;;
31442;SDS011;18065;55.876;9.830;2024-02-21T01:12:33;4.68;;;1.60;;
31442;SDS011;18065;55.876;9.830;2024-02-21T01:15:02;2.53;;;1.23;;
31442;SDS011;18065;55.876;9.830;2024-02-21T01:17:34;1.90;;;1.08;;
31442;SDS011;18065;55.876;9.830;2024-02-21T01:20:06;5.43;;;1.33;;
31442;SDS011;18065;55.876;9.830;2024-02-21T01:22:35;5.10;;;1.55;;
31442;SDS011;18065;55.876;9.830;2024-02-21T01:25:05;3.60;;;1.27;;
31442;SDS011;18065;55.876;9.830;2024-02-21T01:27:34;5.10;;;1.40;;
31442;SDS011;18065;55.876;9.830;2024-02-21T01:30:04;4.10;;;1.70;;
31442;SDS011;18065;55.876;9.830;2024-02-21T01:32:36;3.85;;;1.40;;
31442;SDS011;18065;55.876;9.830;2024-02-21T01:35:05;2.45;;;1.20;;
31442;SDS011;18065;55.876;9.830;2024-02-21T01:37:34;3.15;;;1.40;;
31442;SDS011;18065;55.876;9.830;2024-02-21T01:40:04;4.10;;;1.10;;
31442;SDS011;18065;55.876;9.830;2024-02-21T01:42:37;2.95;;;1.33;;
31442;SDS011;18065;55.876;9.830;2024-02-21T01:45:07;2.45;;;1.25;;
31442;SDS011;18065;55.876;9.830;2024-02-21T01:47:39;2.60;;;1.10;;
31442;SDS011;18065;55.876;9.830;2024-02-21T01:50:08;4.25;;;1.73;;
31442;SDS011;18065;55.876;9.830;2024-02-21T01:52:37;3.08;;;1.33;;
31442;SDS011;18065;55.876;9.830;2024-02-21T01:55:07;4.03;;;1.60;;
31442;SDS011;18065;55.876;9.830;2024-02-21T01:57:38;2.10;;;1.00;;
31442;SDS011;18065;55.876;9.830;2024-02-21T02:00:08;3.22;;;1.40;;
31442;SDS011;18065;55.876;9.830;2024-02-21T02:02:42;2.75;;;1.20;;
31442;SDS011;18065;55.876;9.830;2024-02-21T02:05:11;4.25;;;1.23;;
31442;SDS011;18065;55.876;9.830;2024-02-21T02:07:40;3.10;;;1.10;;
31442;SDS011;18065;55.876;9.830;2024-02-21T02:10:09;2.80;;;1.15;;
31442;SDS011;18065;55.876;9.830;2024-02-21T02:12:38;2.90;;;1.10;;
31442;SDS011;18065;55.876;9.830;2024-02-21T02:15:07;2.47;;;1.20;;
31442;SDS011;18065;55.876;9.830;2024-02-21T02:17:36;1.88;;;0.95;;
31442;SDS011;18065;55.876;9.830;2024-02-21T02:20:08;2.58;;;1.08;;
31442;SDS011;18065;55.876;9.830;2024-02-21T02:22:38;1.80;;;1.05;;
31442;SDS011;18065;55.876;9.830;2024-02-21T02:25:11;2.88;;;1.10;;
31442;SDS011;18065;55.876;9.830;2024-02-21T02:27:43;1.48;;;0.90;;
31442;SDS011;18065;55.876;9.830;2024-02-21T02:30:12;2.50;;;1.10;;
31442;SDS011;18065;55.876;9.830;2024-02-21T02:32:44;2.92;;;1.10;;
31442;SDS011;18065;55.876;9.830;2024-02-21T02:35:13;1.58;;;0.85;;
31442;SDS011;18065;55.876;9.830;2024-02-21T02:37:47;3.00;;;1.30;;
31442;SDS011;18065;55.876;9.830;2024-02-21T02:40:19;2.33;;;0.93;;
31442;SDS011;18065;55.876;9.830;2024-02-21T02:42:48;1.70;;;1.00;;
31442;SDS011;18065;55.876;9.830;2024-02-21T02:45:20;1.75;;;0.90;;
31442;SDS011;18065;55.876;9.830;2024-02-21T02:47:51;1.63;;;0.80;;
31442;SDS011;18065;55.876;9.830;2024-02-21T02:50:22;1.92;;;1.05;;
31442;SDS011;18065;55.876;9.830;2024-02-21T02:52:51;2.72;;;1.20;;
31442;SDS011;18065;55.876;9.830;2024-02-21T02:55:23;2.58;;;1.00;;
31442;SDS011;18065;55.876;9.830;2024-02-21T02:57:53;1.10;;;0.93;;
31442;SDS011;18065;55.876;9.830;2024-02-21T03:00:22;1.40;;;0.93;;
31442;SDS011;18065;55.876;9.830;2024-02-21T03:02:51;2.53;;;1.00;;
31442;SDS011;18065;55.876;9.830;2024-02-21T03:05:20;3.25;;;0.80;;
31442;SDS011;18065;55.876;9.830;2024-02-21T03:07:49;2.33;;;1.00;;
31442;SDS011;18065;55.876;9.830;2024-02-21T03:10:18;1.50;;;0.90;;
31442;SDS011;18065;55.876;9.830;2024-02-21T03:12:50;2.83;;;1.00;;
31442;SDS011;18065;55.876;9.830;2024-02-21T03:15:20;1.42;;;0.70;;
31442;SDS011;18065;55.876;9.830;2024-02-21T03:17:49;1.30;;;0.73;;
31442;SDS011;18065;55.876;9.830;2024-02-21T03:20:18;1.63;;;0.80;;
31442;SDS011;18065;55.876;9.830;2024-02-21T03:22:47;2.35;;;0.80;;
31442;SDS011;18065;55.876;9.830;2024-02-21T03:25:16;1.25;;;0.60;;
31442;SDS011;18065;55.876;9.830;2024-02-21T03:27:45;2.65;;;1.17;;
31442;SDS011;18065;55.876;9.830;2024-02-21T03:30:16;2.80;;;0.90;;
31442;SDS011;18065;55.876;9.830;2024-02-21T03:32:46;2.42;;;1.00;;
31442;SDS011;18065;55.876;9.830;2024-02-21T03:35:15;5.05;;;0.85;;
31442;SDS011;18065;55.876;9.830;2024-02-21T03:37:44;2.88;;;0.75;;
31442;SDS011;18065;55.876;9.830;2024-02-21T03:40:13;1.02;;;0.60;;
31442;SDS011;18065;55.876;9.830;2024-02-21T03:42:42;1.55;;;0.90;;
31442;SDS011;18065;55.876;9.830;2024-02-21T03:45:11;2.95;;;0.82;;
31442;SDS011;18065;55.876;9.830;2024-02-21T03:47:42;2.00;;;0.60;;
31442;SDS011;18065;55.876;9.830;2024-02-21T03:50:11;1.63;;;0.70;;
31442;SDS011;18065;55.876;9.830;2024-02-21T03:52:40;2.50;;;0.90;;
31442;SDS011;18065;55.876;9.830;2024-02-21T03:55:09;1.13;;;0.70;;
31442;SDS011;18065;55.876;9.830;2024-02-21T03:57:38;1.52;;;0.90;;
31442;SDS011;18065;55.876;9.830;2024-02-21T04:00:07;2.45;;;1.10;;
31442;SDS011;18065;55.876;9.830;2024-02-21T04:02:39;1.25;;;0.70;;
31442;SDS011;18065;55.876;9.830;2024-02-21T04:05:10;1.05;;;0.70;;
31442;SDS011;18065;55.876;9.830;2024-02-21T04:07:39;2.13;;;0.70;;
31442;SDS011;18065;55.876;9.830;2024-02-21T04:10:08;1.30;;;0.80;;
31442;SDS011;18065;55.876;9.830;2024-02-21T04:12:37;3.47;;;0.68;;
31442;SDS011;18065;55.876;9.830;2024-02-21T04:15:06;1.13;;;0.70;;
31442;SDS011;18065;55.876;9.830;2024-02-21T04:17:36;2.60;;;0.70;;
31442;SDS011;18065;55.876;9.830;2024-02-21T04:20:13;1.90;;;0.70;;
31442;SDS011;18065;55.876;9.830;2024-02-21T04:22:42;2.20;;;0.90;;
31442;SDS011;18065;55.876;9.830;2024-02-21T04:25:12;2.33;;;0.70;;
31442;SDS011;18065;55.876;9.830;2024-02-21T04:27:41;2.45;;;0.68;;
31442;SDS011;18065;55.876;9.830;2024-02-21T04:30:10;1.48;;;0.65;;
31442;SDS011;18065;55.876;9.830;2024-02-21T04:32:40;1.77;;;0.85;;
31442;SDS011;18065;55.876;9.830;2024-02-21T04:35:12;0.95;;;0.73;;
31442;SDS011;18065;55.876;9.830;2024-02-21T04:37:42;1.25;;;0.63;;
31442;SDS011;18065;55.876;9.830;2024-02-21T04:40:11;1.83;;;0.98;;
31442;SDS011;18065;55.876;9.830;2024-02-21T04:42:42;3.05;;;0.98;;
31442;SDS011;18065;55.876;9.830;2024-02-21T04:45:11;1.60;;;0.77;;
31442;SDS011;18065;55.876;9.830;2024-02-21T04:47:40;1.63;;;0.80;;
31442;SDS011;18065;55.876;9.830;2024-02-21T04:50:08;0.95;;;0.55;;
31442;SDS011;18065;55.876;9.830;2024-02-21T04:52:40;1.20;;;0.60;;
31442;SDS011;18065;55.876;9.830;2024-02-21T04:55:09;1.48;;;0.60;;
31442;SDS011;18065;55.876;9.830;2024-02-21T04:57:38;2.65;;;0.77;;
31442;SDS011;18065;55.876;9.830;2024-02-21T05:00:07;1.05;;;0.75;;
31442;SDS011;18065;55.876;9.830;2024-02-21T05:02:37;0.80;;;0.60;;
31442;SDS011;18065;55.876;9.830;2024-02-21T05:05:06;2.05;;;0.82;;
31442;SDS011;18065;55.876;9.830;2024-02-21T05:07:38;1.50;;;0.80;;
31442;SDS011;18065;55.876;9.830;2024-02-21T05:10:07;1.80;;;0.60;;
31442;SDS011;18065;55.876;9.830;2024-02-21T05:12:36;2.13;;;0.65;;
31442;SDS011;18065;55.876;9.830;2024-02-21T05:15:06;1.83;;;0.70;;
31442;SDS011;18065;55.876;9.830;2024-02-21T05:17:35;2.22;;;0.95;;
31442;SDS011;18065;55.876;9.830;2024-02-21T05:20:04;2.33;;;0.70;;
31442;SDS011;18065;55.876;9.830;2024-02-21T05:22:34;1.27;;;0.70;;
31442;SDS011;18065;55.876;9.830;2024-02-21T05:25:07;1.15;;;0.70;;
31442;SDS011;18065;55.876;9.830;2024-02-21T05:27:36;2.38;;;0.90;;
31442;SDS011;18065;55.876;9.830;2024-02-21T05:30:05;1.83;;;0.70;;
31442;SDS011;18065;55.876;9.830;2024-02-21T05:32:35;1.00;;;0.60;;
31442;SDS011;18065;55.876;9.830;2024-02-21T05:35:04;2.22;;;0.90;;
31442;SDS011;18065;55.876;9.830;2024-02-21T05:37:33;1.23;;;0.60;;
31442;SDS011;18065;55.876;9.830;2024-02-21T05:40:05;1.67;;;0.80;;
31442;SDS011;18065;55.876;9.830;2024-02-21T05:42:37;2.45;;;1.00;;
31442;SDS011;18065;55.876;9.830;2024-02-21T05:45:06;2.33;;;0.60;;
31442;SDS011;18065;55.876;9.830;2024-02-21T05:47:35;1.75;;;0.73;;
31442;SDS011;18065;55.876;9.830;2024-02-21T05:50:05;2.08;;;0.77;;
31442;SDS011;18065;55.876;9.830;2024-02-21T05:52:34;11.48;;;1.50;;
31442;SDS011;18065;55.876;9.830;2024-02-21T05:55:06;4.03;;;1.38;;
31442;SDS011;18065;55.876;9.830;2024-02-21T05:57:35;6.60;;;1.35;;
31442;SDS011;18065;55.876;9.830;2024-02-21T06:00:05;3.30;;;1.35;;
31442;SDS011;18065;55.876;9.830;2024-02-21T06:02:35;3.90;;;1.00;;
31442;SDS011;18065;55.876;9.830;2024-02-21T06:05:04;4.10;;;1.10;;
31442;SDS011;18065;55.876;9.830;2024-02-21T06:07:34;5.03;;;1.15;;
31442;SDS011;18065;55.876;9.830;2024-02-21T06:10:06;3.08;;;1.05;;
31442;SDS011;18065;55.876;9.830;2024-02-21T06:12:36;4.22;;;1.23;;
31442;SDS011;18065;55.876;9.830;2024-02-21T06:15:05;4.25;;;1.27;;
31442;SDS011;18065;55.876;9.830;2024-02-21T06:17:35;4.00;;;1.08;;
31442;SDS011;18065;55.876;9.830;2024-02-21T06:20:04;4.53;;;1.20;;
31442;SDS011;18065;55.876;9.830;2024-02-21T06:22:34;3.63;;;0.82;;
31442;SDS011;18065;55.876;9.830;2024-02-21T06:25:06;3.40;;;1.00;;
31442;SDS011;18065;55.876;9.830;2024-02-21T06:27:35;4.20;;;0.90;;
31442;SDS011;18065;55.876;9.830;2024-02-21T06:30:04;3.65;;;0.90;;
31442;SDS011;18065;55.876;9.830;2024-02-21T06:32:34;4.65;;;1.00;;
31442;SDS011;18065;55.876;9.830;2024-02-21T06:35:03;3.28;;;1.05;;
31442;SDS011;18065;55.876;9.830;2024-02-21T06:37:33;3.42;;;1.00;;
31442;SDS011;18065;55.876;9.830;2024-02-21T06:40:07;3.25;;;1.15;;
31442;SDS011;18065;55.876;9.830;2024-02-21T06:42:36;5.10;;;1.00;;
31442;SDS011;18065;55.876;9.830;2024-02-21T06:45:05;4.82;;;1.10;;
31442;SDS011;18065;55.876;9.830;2024-02-21T06:47:34;3.00;;;1.00;;
31442;SDS011;18065;55.876;9.830;2024-02-21T06:50:04;2.53;;;0.98;;
31442;SDS011;18065;55.876;9.830;2024-02-21T06:52:34;3.65;;;1.10;;
31442;SDS011;18065;55.876;9.830;2024-02-21T06:55:03;4.20;;;1.20;;
31442;SDS011;18065;55.876;9.830;2024-02-21T06:57:35;2.92;;;1.05;;
31442;SDS011;18065;55.876;9.830;2024-02-21T07:00:04;5.32;;;1.20;;
31442;SDS011;18065;55.876;9.830;2024-02-21T07:02:35;3.67;;;1.05;;
31442;SDS011;18065;55.876;9.830;2024-02-21T07:05:04;1.70;;;1.05;;
31442;SDS011;18065;55.876;9.830;2024-02-21T07:07:34;5.03;;;1.05;;
31442;SDS011;18065;55.876;9.830;2024-02-21T07:10:06;5.55;;;1.48;;
31442;SDS011;18065;55.876;9.830;2024-02-21T07:12:36;2.28;;;0.90;;
31442;SDS011;18065;55.876;9.830;2024-02-21T07:15:07;2.30;;;0.85;;
31442;SDS011;18065;55.876;9.830;2024-02-21T07:17:36;3.38;;;0.95;;
31442;SDS011;18065;55.876;9.830;2024-02-21T07:20:05;2.88;;;0.90;;
31442;SDS011;18065;55.876;9.830;2024-02-21T07:22:35;3.38;;;1.10;;
31442;SDS011;18065;55.876;9.830;2024-02-21T07:25:08;2.70;;;1.40;;
31442;SDS011;18065;55.876;9.830;2024-02-21T07:27:37;3.20;;;1.02;;
31442;SDS011;18065;55.876;9.830;2024-02-21T07:30:07;5.22;;;1.27;;
31442;SDS011;18065;55.876;9.830;2024-02-21T07:32:36;2.80;;;1.05;;
31442;SDS011;18065;55.876;9.830;2024-02-21T07:35:05;3.03;;;1.00;;
31442;SDS011;18065;55.876;9.830;2024-02-21T07:37:37;3.28;;;1.08;;
31442;SDS011;18065;55.876;9.830;2024-02-21T07:40:11;2.33;;;0.93;;
31442;SDS011;18065;55.876;9.830;2024-02-21T07:42:41;2.63;;;1.00;;
31442;SDS011;18065;55.876;9.830;2024-02-21T07:45:10;1.55;;;0.70;;
31442;SDS011;18065;55.876;9.830;2024-02-21T07:47:39;2.60;;;0.85;;
31442;SDS011;18065;55.876;9.830;2024-02-21T07:50:08;2.10;;;0.60;;
31442;SDS011;18065;55.876;9.830;2024-02-21T07:52:37;3.15;;;1.00;;
31442;SDS011;18065;55.876;9.830;2024-02-21T07:55:09;2.40;;;0.88;;
31442;SDS011;18065;55.876;9.830;2024-02-21T07:57:38;2.63;;;0.90;;
31442;SDS011;18065;55.876;9.830;2024-02-21T08:00:07;3.67;;;1.08;;
31442;SDS011;18065;55.876;9.830;2024-02-21T08:02:44;2.97;;;0.98;;
31442;SDS011;18065;55.876;9.830;2024-02-21T08:05:13;3.33;;;1.10;;
31442;SDS011;18065;55.876;9.830;2024-02-21T08:07:42;1.98;;;0.70;;
31442;SDS011;18065;55.876;9.830;2024-02-21T08:10:14;3.58;;;1.10;;
31442;SDS011;18065;55.876;9.830;2024-02-21T08:12:43;3.33;;;0.80;;
31442;SDS011;18065;55.876;9.830;2024-02-21T08:15:11;2.45;;;0.90;;
31442;SDS011;18065;55.876;9.830;2024-02-21T08:17:41;2.20;;;0.90;;
31442;SDS011;18065;55.876;9.830;2024-02-21T08:20:10;1.85;;;0.82;;
31442;SDS011;18065;55.876;9.830;2024-02-21T08:22:39;1.75;;;0.80;;
31442;SDS011;18065;55.876;9.830;2024-02-21T08:25:08;2.53;;;0.88;;
31442;SDS011;18065;55.876;9.830;2024-02-21T08:27:40;2.47;;;0.82;;
31442;SDS011;18065;55.876;9.830;2024-02-21T08:30:10;2.97;;;0.85;;
31442;SDS011;18065;55.876;9.830;2024-02-21T08:32:40;3.20;;;1.00;;
31442;SDS011;18065;55.876;9.830;2024-02-21T08:35:08;2.40;;;0.93;;
31442;SDS011;18065;55.876;9.830;2024-02-21T08:37:38;2.47;;;0.82;;
31442;SDS011;18065;55.876;9.830;2024-02-21T08:40:09;2.47;;;0.82;;
31442;SDS011;18065;55.876;9.830;2024-02-21T08:42:41;1.98;;;0.98;;
31442;SDS011;18065;55.876;9.830;2024-02-21T08:45:10;1.33;;;0.60;;
31442;SDS011;18065;55.876;9.830;2024-02-21T08:47:39;2.47;;;0.70;;
31442;SDS011;18065;55.876;9.830;2024-02-21T08:50:08;2.03;;;0.70;;
31442;SDS011;18065;55.876;9.830;2024-02-21T08:52:38;3.05;;;0.98;;
31442;SDS011;18065;55.876;9.830;2024-02-21T08:55:08;3.63;;;1.08;;
31442;SDS011;18065;55.876;9.830;2024-02-21T08:57:37;3.30;;;0.90;;
31442;SDS011;18065;55.876;9.830;2024-02-21T09:00:09;1.70;;;0.60;;
31442;SDS011;18065;55.876;9.830;2024-02-21T09:02:39;2.95;;;1.08;;
31442;SDS011;18065;55.876;9.830;2024-02-21T09:05:09;2.10;;;0.93;;
31442;SDS011;18065;55.876;9.830;2024-02-21T09:07:38;1.98;;;0.85;;
31442;SDS011;18065;55.876;9.830;2024-02-21T09:10:07;2.13;;;0.90;;
31442;SDS011;18065;55.876;9.830;2024-02-21T09:12:37;2.22;;;0.82;;
31442;SDS011;18065;55.876;9.830;2024-02-21T09:15:09;1.58;;;0.80;;
31442;SDS011;18065;55.876;9.830;2024-02-21T09:17:38;2.20;;;0.73;;
31442;SDS011;18065;55.876;9.830;2024-02-21T09:20:08;1.98;;;0.90;;
31442;SDS011;18065;55.876;9.830;2024-02-21T09:22:38;2.35;;;0.90;;
31442;SDS011;18065;55.876;9.830;2024-02-21T09:25:07;1.83;;;0.75;;
31442;SDS011;18065;55.876;9.830;2024-02-21T09:27:37;2.40;;;0.80;;
31442;SDS011;18065;55.876;9.830;2024-02-21T09:30:09;1.85;;;0.70;;
31442;SDS011;18065;55.876;9.830;2024-02-21T09:32:39;2.70;;;0.80;;
31442;SDS011;18065;55.876;9.830;2024-02-21T09:35:08;4.47;;;1.00;;
31442;SDS011;18065;55.876;9.830;2024-02-21T09:37:38;2.40;;;0.80;;
31442;SDS011;18065;55.876;9.830;2024-02-21T09:40:07;2.30;;;0.90;;
31442;SDS011;18065;55.876;9.830;2024-02-21T09:42:37;2.60;;;0.70;;
31442;SDS011;18065;55.876;9.830;2024-02-21T09:45:13;1.60;;;0.73;;
31442;SDS011;18065;55.876;9.830;2024-02-21T09:47:50;3.60;;;1.00;;
31442;SDS011;18065;55.876;9.830;2024-02-21T09:50:30;1.65;;;0.75;;
31442;SDS011;18065;55.876;9.830;2024-02-21T09:53:00;2.13;;;0.80;;
31442;SDS011;18065;55.876;9.830;2024-02-21T09:55:31;2.58;;;1.00;;
31442;SDS011;18065;55.876;9.830;2024-02-21T09:58:05;1.77;;;0.70;;
31442;SDS011;18065;55.876;9.830;2024-02-21T10:00:38;1.77;;;0.80;;
31442;SDS011;18065;55.876;9.830;2024-02-21T10:03:07;2.38;;;1.10;;
31442;SDS011;18065;55.876;9.830;2024-02-21T10:05:38;1.63;;;0.70;;
31442;SDS011;18065;55.876;9.830;2024-02-21T10:08:07;1.55;;;0.80;;
31442;SDS011;18065;55.876;9.830;2024-02-21T10:10:43;1.55;;;0.70;;
31442;SDS011;18065;55.876;9.830;2024-02-21T10:13:09;1.88;;;0.68;;
31442;SDS011;18065;55.876;9.830;2024-02-21T10:15:41;1.40;;;0.57;;
31442;SDS011;18065;55.876;9.830;2024-02-21T10:18:15;0.93;;;0.60;;
31442;SDS011;18065;55.876;9.830;2024-02-21T10:20:46;1.60;;;0.70;;
31442;SDS011;18065;55.876;9.830;2024-02-21T10:23:15;2.05;;;0.80;;
31442;SDS011;18065;55.876;9.830;2024-02-21T10:25:44;2.10;;;0.90;;
31442;SDS011;18065;55.876;9.830;2024-02-21T10:28:14;1.70;;;0.70;;
31442;SDS011;18065;55.876;9.830;2024-02-21T10:30:52;1.88;;;0.80;;
31442;SDS011;18065;55.876;9.830;2024-02-21T10:33:21;1.88;;;0.90;;
31442;SDS011;18065;55.876;9.830;2024-02-21T10:35:53;1.20;;;0.63;;
31442;SDS011;18065;55.876;9.830;2024-02-21T10:38:22;1.80;;;0.68;;
31442;SDS011;18065;55.876;9.830;2024-02-21T10:40:51;1.17;;;0.63;;
31442;SDS011;18065;55.876;9.830;2024-02-21T10:43:22;1.30;;;0.50;;
31442;SDS011;18065;55.876;9.830;2024-02-21T10:45:53;1.10;;;0.80;;
31442;SDS011;18065;55.876;9.830;2024-02-21T10:48:27;2.05;;;0.73;;
31442;SDS011;18065;55.876;9.830;2024-02-21T10:51:06;1.90;;;0.70;;
31442;SDS011;18065;55.876;9.830;2024-02-21T10:53:44;1.83;;;0.82;;
31442;SDS011;18065;55.876;9.830;2024-02-21T10:56:21;2.20;;;0.57;;
31442;SDS011;18065;55.876;9.830;2024-02-21T10:58:53;2.08;;;0.65;;
31442;SDS011;18065;55.876;9.830;2024-02-21T11:01:25;1.38;;;0.65;;
31442;SDS011;18065;55.876;9.830;2024-02-21T11:03:57;0.77;;;0.50;;
31442;SDS011;18065;55.876;9.830;2024-02-21T11:06:28;0.75;;;0.50;;
31442;SDS011;18065;55.876;9.830;2024-02-21T11:09:03;1.58;;;0.80;;
31442;SDS011;18065;55.876;9.830;2024-02-21T11:11:33;1.48;;;0.60;;
31442;SDS011;18065;55.876;9.830;2024-02-21T11:14:09;2.05;;;0.60;;
31442;SDS011;18065;55.876;9.830;2024-02-21T11:16:41;0.90;;;0.70;;
31442;SDS011;18065;55.876;9.830;2024-02-21T11:19:18;1.77;;;0.77;;
31442;SDS011;18065;55.876;9.830;2024-02-21T11:21:51;1.10;;;0.57;;
31442;SDS011;18065;55.876;9.830;2024-02-21T11:24:27;1.58;;;0.80;;
31442;SDS011;18065;55.876;9.830;2024-02-21T11:27:07;2.47;;;0.75;;
31442;SDS011;18065;55.876;9.830;2024-02-21T11:29:40;1.45;;;0.52;;
31442;SDS011;18065;55.876;9.830;2024-02-21T11:32:14;1.33;;;0.70;;
31442;SDS011;18065;55.876;9.830;2024-02-21T11:34:52;2.45;;;0.63;;
31442;SDS011;18065;55.876;9.830;2024-02-21T11:37:26;1.83;;;0.80;;
31442;SDS011;18065;55.876;9.830;2024-02-21T11:39:56;1.23;;;0.57;;
31442;SDS011;18065;55.876;9.830;2024-02-21T11:42:26;2.55;;;0.75;;
31442;SDS011;18065;55.876;9.830;2024-02-21T11:44:55;1.92;;;0.70;;
31442;SDS011;18065;55.876;9.830;2024-02-21T11:47:27;0.82;;;0.40;;
31442;SDS011;18065;55.876;9.830;2024-02-21T11:49:57;1.55;;;0.52;;
31442;SDS011;18065;55.876;9.830;2024-02-21T11:52:26;1.60;;;0.75;;
31442;SDS011;18065;55.876;9.830;2024-02-21T11:54:55;2.60;;;0.93;;
31442;SDS011;18065;55.876;9.830;2024-02-21T11:57:29;1.77;;;0.77;;
31442;SDS011;18065;55.876;9.830;2024-02-21T12:00:10;1.02;;;0.50;;
31442;SDS011;18065;55.876;9.830;2024-02-21T12:02:43;2.28;;;0.80;;
31442;SDS011;18065;55.876;9.830;2024-02-21T12:05:12;1.52;;;0.63;;
31442;SDS011;18065;55.876;9.830;2024-02-21T12:07:41;2.20;;;0.80;;
31442;SDS011;18065;55.876;9.830;2024-02-21T12:10:11;1.33;;;0.70;;
31442;SDS011;18065;55.876;9.830;2024-02-21T12:12:41;1.77;;;0.75;;
31442;SDS011;18065;55.876;9.830;2024-02-21T12:15:10;1.50;;;0.57;;
31442;SDS011;18065;55.876;9.830;2024-02-21T12:17:39;1.45;;;0.60;;
31442;SDS011;18065;55.876;9.830;2024-02-21T12:20:11;1.70;;;0.77;;
31442;SDS011;18065;55.876;9.830;2024-02-21T12:22:41;1.33;;;0.60;;
31442;SDS011;18065;55.876;9.830;2024-02-21T12:25:16;1.77;;;0.77;;
31442;SDS011;18065;55.876;9.830;2024-02-21T12:27:48;1.38;;;0.68;;
31442;SDS011;18065;55.876;9.830;2024-02-21T12:30:17;2.35;;;0.88;;
31442;SDS011;18065;55.876;9.830;2024-02-21T12:32:49;3.67;;;0.70;;
31442;SDS011;18065;55.876;9.830;2024-02-21T12:35:17;1.73;;;0.60;;
31442;SDS011;18065;55.876;9.830;2024-02-21T12:37:46;1.85;;;0.63;;
31442;SDS011;18065;55.876;9.830;2024-02-21T12:40:15;2.25;;;0.77;;
31442;SDS011;18065;55.876;9.830;2024-02-21T12:42:44;1.85;;;0.73;;
31442;SDS011;18065;55.876;9.830;2024-02-21T12:45:13;1.98;;;0.63;;
31442;SDS011;18065;55.876;9.830;2024-02-21T12:47:43;1.55;;;0.60;;
31442;SDS011;18065;55.876;9.830;2024-02-21T12:50:15;1.65;;;0.65;;
31442;SDS011;18065;55.876;9.830;2024-02-21T12:52:45;2.63;;;1.13;;
31442;SDS011;18065;55.876;9.830;2024-02-21T12:55:14;1.73;;;0.60;;
31442;SDS011;18065;55.876;9.830;2024-02-21T12:57:43;2.15;;;0.82;;
31442;SDS011;18065;55.876;9.830;2024-02-21T13:00:13;2.00;;;0.70;;
31442;SDS011;18065;55.876;9.830;2024-02-21T13:02:42;1.90;;;0.68;;
31442;SDS011;18065;55.876;9.830;2024-02-21T13:05:11;1.35;;;0.70;;
31442;SDS011;18065;55.876;9.830;2024-02-21T13:07:43;1.58;;;0.70;;
31442;SDS011;18065;55.876;9.830;2024-02-21T13:10:14;0.90;;;0.60;;
31442;SDS011;18065;55.876;9.830;2024-02-21T13:12:43;1.83;;;0.60;;
31442;SDS011;18065;55.876;9.830;2024-02-21T13:15:12;1.60;;;0.70;;
31442;SDS011;18065;55.876;9.830;2024-02-21T13:17:43;1.35;;;0.60;;
31442;SDS011;18065;55.876;9.830;2024-02-21T13:20:12;1.50;;;0.75;;
31442;SDS011;18065;55.876;9.830;2024-02-21T13:22:44;1.75;;;0.60;;
31442;SDS011;18065;55.876;9.830;2024-02-21T13:25:12;1.90;;;0.80;;
31442;SDS011;18065;55.876;9.830;2024-02-21T13:27:45;1.07;;;0.60;;
31442;SDS011;18065;55.876;9.830;2024-02-21T13:30:14;1.25;;;0.85;;
31442;SDS011;18065;55.876;9.830;2024-02-21T13:32:44;2.33;;;0.70;;
31442;SDS011;18065;55.876;9.830;2024-02-21T13:35:14;1.52;;;0.60;;
31442;SDS011;18065;55.876;9.830;2024-02-21T13:37:45;2.10;;;0.75;;
31442;SDS011;18065;55.876;9.830;2024-02-21T13:40:15;1.42;;;0.70;;
31442;SDS011;18065;55.876;9.830;2024-02-21T13:42:44;2.10;;;0.70;;
31442;SDS011;18065;55.876;9.830;2024-02-21T13:45:15;1.90;;;0.75;;
31442;SDS011;18065;55.876;9.830;2024-02-21T13:47:45;1.70;;;0.82;;
31442;SDS011;18065;55.876;9.830;2024-02-21T13:50:14;0.93;;;0.70;;
31442;SDS011;18065;55.876;9.830;2024-02-21T13:52:45;2.17;;;0.85;;
31442;SDS011;18065;55.876;9.830;2024-02-21T13:55:14;2.50;;;0.90;;
31442;SDS011;18065;55.876;9.830;2024-02-21T13:57:43;2.38;;;0.70;;
31442;SDS011;18065;55.876;9.830;2024-02-21T14:00:13;2.05;;;0.90;;
31442;SDS011;18065;55.876;9.830;2024-02-21T14:02:43;1.20;;;0.60;;
31442;SDS011;18065;55.876;9.830;2024-02-21T14:05:12;1.15;;;0.50;;
31442;SDS011;18065;55.876;9.830;2024-02-21T14:07:41;1.27;;;0.60;;
31442;SDS011;18065;55.876;9.830;2024-02-21T14:10:13;3.63;;;1.05;;
31442;SDS011;18065;55.876;9.830;2024-02-21T14:12:41;2.15;;;0.80;;
31442;SDS011;18065;55.876;9.830;2024-02-21T14:15:10;1.27;;;0.68;;
31442;SDS011;18065;55.876;9.830;2024-02-21T14:17:39;2.05;;;0.90;;
31442;SDS011;18065;55.876;9.830;2024-02-21T14:20:09;3.40;;;1.10;;
31442;SDS011;18065;55.876;9.830;2024-02-21T14:22:39;2.13;;;1.00;;
31442;SDS011;18065;55.876;9.830;2024-02-21T14:25:08;2.78;;;1.00;;
31442;SDS011;18065;55.876;9.830;2024-02-21T14:27:40;2.28;;;0.68;;
31442;SDS011;18065;55.876;9.830;2024-02-21T14:30:09;2.00;;;0.90;;
31442;SDS011;18065;55.876;9.830;2024-02-21T14:32:39;1.83;;;0.68;;
31442;SDS011;18065;55.876;9.830;2024-02-21T14:35:11;1.85;;;0.80;;
31442;SDS011;18065;55.876;9.830;2024-02-21T14:37:40;2.72;;;1.00;;
31442;SDS011;18065;55.876;9.830;2024-02-21T14:40:11;2.42;;;0.95;;
31442;SDS011;18065;55.876;9.830;2024-02-21T14:42:43;2.45;;;1.00;;
31442;SDS011;18065;55.876;9.830;2024-02-21T14:45:12;5.72;;;1.30;;
31442;SDS011;18065;55.876;9.830;2024-02-21T14:47:40;2.05;;;0.98;;
31442;SDS011;18065;55.876;9.830;2024-02-21T14:50:09;3.13;;;1.00;;
31442;SDS011;18065;55.876;9.830;2024-02-21T14:52:38;3.13;;;1.05;;
31442;SDS011;18065;55.876;9.830;2024-02-21T14:55:09;1.98;;;0.85;;
31442;SDS011;18065;55.876;9.830;2024-02-21T14:57:39;2.65;;;0.80;;
31442;SDS011;18065;55.876;9.830;2024-02-21T15:00:12;3.55;;;1.13;;
31442;SDS011;18065;55.876;9.830;2024-02-21T15:02:41;3.58;;;0.80;;
31442;SDS011;18065;55.876;9.830;2024-02-21T15:05:10;4.38;;;1.00;;